首页
METAR-TAF:

METAR-TAF

机场 :

都柏林机场

都柏林, 爱尔兰

纬度: 53-26N, 经度: 006-15W, 海拔: 68米

当前天气观测

该预报发布于42分钟前的15:00 UTC
风速7节,风向西转西南,在西南西转西北之间变化
温度 6°C
湿度 70%
气压 1002 hPa
能见度10公里或以上
少量云层高于2500英尺
多云层高于5000英尺

METAR: EIDW 261500Z 25007KT 230V290 9999 FEW025 BKN050 06/01 Q1002 NOSIG

时间: 15:42 (15:42 UTC)

预报

该预报发布于4小时和42分钟前的11:00 UTC
预报有效从26日的 12点(UTC)到 27日的 12点(UTC)
风速11节,风向西转西南
能见度10公里或以上
少量云层高于1300英尺
多云层高于2500英尺
成为
从 26日的 14点(UTC)到 26日的 16点(UTC)
风速9节,风向西南
成为
从 26日的 17点(UTC)到 26日的 19点(UTC)
风速7节,风向
成为
从 26日的 20点(UTC)到 26日的 22点(UTC)
风速14节,风向西南
短暂存在
从 26日的 22点(UTC)到 26日的 24点(UTC)
风速15节,风向西南,有时为26节阵风
能見度: 4900
多云层高于1500英尺
散云层高于1800英尺, 积雨云.
阵雨
成为
从 26日的 23点(UTC)到 26日的 24点(UTC)
风速19节,风向西南,有时为30节阵风

TAF: EIDW 261100Z 2612/2712 25011KT 9999 FEW013 BKN025 BECMG 2614/2616 22009KT BECMG 2617/2619 19007KT BECMG 2620/2622 22014KT TEMPO 2622/2624 23015G26KT 4900 SHRA BKN015 SCT018CB BECMG 2623/2624 23019G30KT

超过4000个机场的气象观测和天气预报(METAR&TAF报告)。

可查询的气象台以黄色和红色小点在地图上表示。

将鼠标移到小点上方,可查看气象台名称。

然后点击查看天气观测和预报。

如需切换地图:点击带黑十字的绿色按钮放大地图;点击带横线的绿色按钮缩小地图;或者点击绿色箭头查看邻近地区的地图。


METAR-TAF: